sensor_id;sensor_type;location;lat;lon;timestamp;P1;durP1;ratioP1;P2;durP2;ratioP2
16954;SDS011;8594;52.052;8.354;2022-10-16T00:00:37;6.47;;;4.50;;
16954;SDS011;8594;52.052;8.354;2022-10-16T00:03:06;6.10;;;4.60;;
16954;SDS011;8594;52.052;8.354;2022-10-16T00:05:37;7.27;;;4.67;;
16954;SDS011;8594;52.052;8.354;2022-10-16T00:08:08;8.20;;;4.30;;
16954;SDS011;8594;52.052;8.354;2022-10-16T00:10:37;8.67;;;4.93;;
16954;SDS011;8594;52.052;8.354;2022-10-16T00:13:04;6.00;;;4.13;;
16954;SDS011;8594;52.052;8.354;2022-10-16T00:15:33;6.53;;;4.17;;
16954;SDS011;8594;52.052;8.354;2022-10-16T00:18:01;6.93;;;4.20;;
16954;SDS011;8594;52.052;8.354;2022-10-16T00:20:29;5.70;;;4.10;;
16954;SDS011;8594;52.052;8.354;2022-10-16T00:22:56;6.37;;;4.30;;
16954;SDS011;8594;52.052;8.354;2022-10-16T00:25:24;8.53;;;4.50;;
16954;SDS011;8594;52.052;8.354;2022-10-16T00:27:51;7.60;;;4.33;;
16954;SDS011;8594;52.052;8.354;2022-10-16T00:30:18;9.43;;;4.73;;
16954;SDS011;8594;52.052;8.354;2022-10-16T00:32:45;9.73;;;4.33;;
16954;SDS011;8594;52.052;8.354;2022-10-16T00:35:12;6.37;;;4.40;;
16954;SDS011;8594;52.052;8.354;2022-10-16T00:37:39;7.73;;;4.60;;
16954;SDS011;8594;52.052;8.354;2022-10-16T00:40:06;6.70;;;4.53;;
16954;SDS011;8594;52.052;8.354;2022-10-16T00:42:35;7.77;;;4.97;;
16954;SDS011;8594;52.052;8.354;2022-10-16T00:45:02;8.80;;;4.73;;
16954;SDS011;8594;52.052;8.354;2022-10-16T00:47:32;10.77;;;4.90;;
16954;SDS011;8594;52.052;8.354;2022-10-16T00:50:05;8.17;;;4.87;;
16954;SDS011;8594;52.052;8.354;2022-10-16T00:52:40;7.70;;;4.40;;
16954;SDS011;8594;52.052;8.354;2022-10-16T00:55:12;10.30;;;4.63;;
16954;SDS011;8594;52.052;8.354;2022-10-16T00:57:41;8.80;;;4.70;;
16954;SDS011;8594;52.052;8.354;2022-10-16T01:00:11;7.83;;;4.77;;
16954;SDS011;8594;52.052;8.354;2022-10-16T01:02:41;6.90;;;4.73;;
16954;SDS011;8594;52.052;8.354;2022-10-16T01:05:08;7.67;;;4.73;;
16954;SDS011;8594;52.052;8.354;2022-10-16T01:07:37;7.87;;;4.70;;
16954;SDS011;8594;52.052;8.354;2022-10-16T01:10:15;9.00;;;4.20;;
16954;SDS011;8594;52.052;8.354;2022-10-16T01:12:57;10.90;;;4.80;;
16954;SDS011;8594;52.052;8.354;2022-10-16T01:15:29;8.13;;;4.70;;
16954;SDS011;8594;52.052;8.354;2022-10-16T01:18:03;11.00;;;4.53;;
16954;SDS011;8594;52.052;8.354;2022-10-16T01:20:39;5.90;;;4.37;;
16954;SDS011;8594;52.052;8.354;2022-10-16T01:23:20;11.00;;;4.80;;
16954;SDS011;8594;52.052;8.354;2022-10-16T01:26:13;10.53;;;5.23;;
16954;SDS011;8594;52.052;8.354;2022-10-16T01:29:03;17.63;;;5.47;;
16954;SDS011;8594;52.052;8.354;2022-10-16T01:31:36;8.40;;;4.93;;
16954;SDS011;8594;52.052;8.354;2022-10-16T01:34:08;8.87;;;5.47;;
16954;SDS011;8594;52.052;8.354;2022-10-16T01:36:44;8.23;;;5.17;;
16954;SDS011;8594;52.052;8.354;2022-10-16T01:39:17;10.80;;;4.60;;
16954;SDS011;8594;52.052;8.354;2022-10-16T01:41:50;13.57;;;5.10;;
16954;SDS011;8594;52.052;8.354;2022-10-16T01:44:29;10.53;;;6.10;;
16954;SDS011;8594;52.052;8.354;2022-10-16T01:46:59;12.47;;;5.43;;
16954;SDS011;8594;52.052;8.354;2022-10-16T01:49:27;13.60;;;5.90;;
16954;SDS011;8594;52.052;8.354;2022-10-16T01:52:00;10.03;;;5.70;;
16954;SDS011;8594;52.052;8.354;2022-10-16T01:54:34;11.90;;;5.17;;
16954;SDS011;8594;52.052;8.354;2022-10-16T01:57:06;10.57;;;4.80;;
16954;SDS011;8594;52.052;8.354;2022-10-16T01:59:42;9.27;;;5.53;;
16954;SDS011;8594;52.052;8.354;2022-10-16T02:02:14;6.60;;;4.97;;
16954;SDS011;8594;52.052;8.354;2022-10-16T02:04:45;12.97;;;5.63;;
16954;SDS011;8594;52.052;8.354;2022-10-16T02:07:17;11.03;;;5.40;;
16954;SDS011;8594;52.052;8.354;2022-10-16T02:09:44;8.63;;;5.60;;
16954;SDS011;8594;52.052;8.354;2022-10-16T02:12:13;17.27;;;5.40;;
16954;SDS011;8594;52.052;8.354;2022-10-16T02:14:46;12.13;;;5.93;;
16954;SDS011;8594;52.052;8.354;2022-10-16T02:17:15;9.30;;;5.70;;
16954;SDS011;8594;52.052;8.354;2022-10-16T02:19:44;10.77;;;5.23;;
16954;SDS011;8594;52.052;8.354;2022-10-16T02:22:16;10.87;;;5.33;;
16954;SDS011;8594;52.052;8.354;2022-10-16T02:24:50;8.27;;;5.20;;
16954;SDS011;8594;52.052;8.354;2022-10-16T02:27:24;10.03;;;5.80;;
16954;SDS011;8594;52.052;8.354;2022-10-16T02:30:01;10.00;;;5.23;;
16954;SDS011;8594;52.052;8.354;2022-10-16T02:32:36;17.13;;;5.67;;
16954;SDS011;8594;52.052;8.354;2022-10-16T02:35:08;10.83;;;4.67;;
16954;SDS011;8594;52.052;8.354;2022-10-16T02:37:36;9.57;;;5.30;;
16954;SDS011;8594;52.052;8.354;2022-10-16T02:40:07;11.53;;;5.53;;
16954;SDS011;8594;52.052;8.354;2022-10-16T02:42:36;8.60;;;5.50;;
16954;SDS011;8594;52.052;8.354;2022-10-16T02:45:08;12.67;;;5.33;;
16954;SDS011;8594;52.052;8.354;2022-10-16T02:47:37;10.67;;;5.60;;
16954;SDS011;8594;52.052;8.354;2022-10-16T02:50:04;14.70;;;5.87;;
16954;SDS011;8594;52.052;8.354;2022-10-16T02:52:32;10.00;;;5.70;;
16954;SDS011;8594;52.052;8.354;2022-10-16T02:54:59;8.03;;;5.47;;
16954;SDS011;8594;52.052;8.354;2022-10-16T02:57:26;8.90;;;5.00;;
16954;SDS011;8594;52.052;8.354;2022-10-16T02:59:53;11.83;;;5.50;;
16954;SDS011;8594;52.052;8.354;2022-10-16T03:02:21;9.93;;;5.57;;
16954;SDS011;8594;52.052;8.354;2022-10-16T03:04:48;13.53;;;5.77;;
16954;SDS011;8594;52.052;8.354;2022-10-16T03:07:15;9.57;;;5.50;;
16954;SDS011;8594;52.052;8.354;2022-10-16T03:09:42;13.20;;;5.50;;
16954;SDS011;8594;52.052;8.354;2022-10-16T03:12:09;7.63;;;4.70;;
16954;SDS011;8594;52.052;8.354;2022-10-16T03:14:37;11.57;;;5.53;;
16954;SDS011;8594;52.052;8.354;2022-10-16T03:17:04;8.50;;;4.97;;
16954;SDS011;8594;52.052;8.354;2022-10-16T03:19:33;8.33;;;5.33;;
16954;SDS011;8594;52.052;8.354;2022-10-16T03:22:00;11.73;;;5.30;;
16954;SDS011;8594;52.052;8.354;2022-10-16T03:24:27;9.00;;;5.10;;
16954;SDS011;8594;52.052;8.354;2022-10-16T03:26:54;9.33;;;5.60;;
16954;SDS011;8594;52.052;8.354;2022-10-16T03:29:21;9.33;;;5.03;;
16954;SDS011;8594;52.052;8.354;2022-10-16T03:31:48;7.83;;;4.77;;
16954;SDS011;8594;52.052;8.354;2022-10-16T03:34:15;8.07;;;4.83;;
16954;SDS011;8594;52.052;8.354;2022-10-16T03:36:43;10.30;;;5.23;;
16954;SDS011;8594;52.052;8.354;2022-10-16T03:39:10;10.97;;;4.67;;
16954;SDS011;8594;52.052;8.354;2022-10-16T03:41:37;8.20;;;4.50;;
16954;SDS011;8594;52.052;8.354;2022-10-16T03:44:04;9.57;;;4.70;;
16954;SDS011;8594;52.052;8.354;2022-10-16T03:46:31;9.30;;;5.03;;
16954;SDS011;8594;52.052;8.354;2022-10-16T03:48:58;8.47;;;5.10;;
16954;SDS011;8594;52.052;8.354;2022-10-16T03:51:25;8.43;;;5.20;;
16954;SDS011;8594;52.052;8.354;2022-10-16T03:53:53;7.73;;;4.93;;
16954;SDS011;8594;52.052;8.354;2022-10-16T03:56:20;6.97;;;4.20;;
16954;SDS011;8594;52.052;8.354;2022-10-16T03:58:47;11.90;;;4.93;;
16954;SDS011;8594;52.052;8.354;2022-10-16T04:01:14;13.43;;;5.27;;
16954;SDS011;8594;52.052;8.354;2022-10-16T04:03:41;7.87;;;4.60;;
16954;SDS011;8594;52.052;8.354;2022-10-16T04:06:08;9.73;;;5.00;;
16954;SDS011;8594;52.052;8.354;2022-10-16T04:08:35;9.70;;;5.20;;
16954;SDS011;8594;52.052;8.354;2022-10-16T04:11:05;9.77;;;4.90;;
16954;SDS011;8594;52.052;8.354;2022-10-16T04:13:32;11.37;;;5.10;;
16954;SDS011;8594;52.052;8.354;2022-10-16T04:15:59;7.83;;;4.73;;
16954;SDS011;8594;52.052;8.354;2022-10-16T04:18:26;12.67;;;5.73;;
16954;SDS011;8594;52.052;8.354;2022-10-16T04:20:54;10.00;;;4.63;;
16954;SDS011;8594;52.052;8.354;2022-10-16T04:23:21;7.97;;;5.00;;
16954;SDS011;8594;52.052;8.354;2022-10-16T04:25:48;10.60;;;5.30;;
16954;SDS011;8594;52.052;8.354;2022-10-16T04:28:16;11.67;;;4.60;;
16954;SDS011;8594;52.052;8.354;2022-10-16T04:30:43;8.07;;;4.67;;
16954;SDS011;8594;52.052;8.354;2022-10-16T04:33:10;8.53;;;4.93;;
16954;SDS011;8594;52.052;8.354;2022-10-16T04:35:38;9.67;;;4.70;;
16954;SDS011;8594;52.052;8.354;2022-10-16T04:38:05;7.07;;;4.60;;
16954;SDS011;8594;52.052;8.354;2022-10-16T04:40:32;7.13;;;3.83;;
16954;SDS011;8594;52.052;8.354;2022-10-16T04:43:01;7.67;;;3.67;;
16954;SDS011;8594;52.052;8.354;2022-10-16T04:45:30;9.83;;;4.50;;
16954;SDS011;8594;52.052;8.354;2022-10-16T04:47:57;7.07;;;4.40;;
16954;SDS011;8594;52.052;8.354;2022-10-16T04:50:25;10.67;;;4.47;;
16954;SDS011;8594;52.052;8.354;2022-10-16T04:52:52;6.83;;;4.23;;
16954;SDS011;8594;52.052;8.354;2022-10-16T04:55:19;8.43;;;4.37;;
16954;SDS011;8594;52.052;8.354;2022-10-16T04:57:46;5.53;;;3.80;;
16954;SDS011;8594;52.052;8.354;2022-10-16T05:00:13;6.83;;;3.90;;
16954;SDS011;8594;52.052;8.354;2022-10-16T05:02:41;5.43;;;3.60;;
16954;SDS011;8594;52.052;8.354;2022-10-16T05:05:08;5.90;;;3.80;;
16954;SDS011;8594;52.052;8.354;2022-10-16T05:07:36;4.30;;;3.40;;
16954;SDS011;8594;52.052;8.354;2022-10-16T05:10:03;6.27;;;3.50;;
16954;SDS011;8594;52.052;8.354;2022-10-16T05:12:31;10.53;;;3.80;;
16954;SDS011;8594;52.052;8.354;2022-10-16T05:14:58;11.77;;;4.10;;
16954;SDS011;8594;52.052;8.354;2022-10-16T05:17:25;5.43;;;3.57;;
16954;SDS011;8594;52.052;8.354;2022-10-16T05:19:53;5.63;;;3.60;;
16954;SDS011;8594;52.052;8.354;2022-10-16T05:22:21;9.57;;;5.57;;
16954;SDS011;8594;52.052;8.354;2022-10-16T05:24:48;9.53;;;3.70;;
16954;SDS011;8594;52.052;8.354;2022-10-16T05:27:15;4.77;;;3.53;;
16954;SDS011;8594;52.052;8.354;2022-10-16T05:29:44;12.53;;;3.47;;
16954;SDS011;8594;52.052;8.354;2022-10-16T05:32:12;9.00;;;3.80;;
16954;SDS011;8594;52.052;8.354;2022-10-16T05:34:39;5.20;;;3.30;;
16954;SDS011;8594;52.052;8.354;2022-10-16T05:37:07;6.60;;;3.47;;
16954;SDS011;8594;52.052;8.354;2022-10-16T05:39:34;6.87;;;3.13;;
16954;SDS011;8594;52.052;8.354;2022-10-16T05:42:02;6.60;;;3.37;;
16954;SDS011;8594;52.052;8.354;2022-10-16T05:44:29;6.03;;;3.00;;
16954;SDS011;8594;52.052;8.354;2022-10-16T05:46:56;8.50;;;3.30;;
16954;SDS011;8594;52.052;8.354;2022-10-16T05:49:23;5.67;;;3.60;;
16954;SDS011;8594;52.052;8.354;2022-10-16T05:51:50;6.43;;;3.30;;
16954;SDS011;8594;52.052;8.354;2022-10-16T05:54:19;8.77;;;2.87;;
16954;SDS011;8594;52.052;8.354;2022-10-16T05:56:46;6.90;;;2.97;;
16954;SDS011;8594;52.052;8.354;2022-10-16T05:59:13;5.33;;;2.73;;
16954;SDS011;8594;52.052;8.354;2022-10-16T06:01:40;4.77;;;2.57;;
16954;SDS011;8594;52.052;8.354;2022-10-16T06:04:07;5.03;;;2.90;;
16954;SDS011;8594;52.052;8.354;2022-10-16T06:06:35;6.20;;;2.37;;
16954;SDS011;8594;52.052;8.354;2022-10-16T06:09:02;6.43;;;2.67;;
16954;SDS011;8594;52.052;8.354;2022-10-16T06:11:31;6.63;;;3.00;;
16954;SDS011;8594;52.052;8.354;2022-10-16T06:14:00;7.40;;;6.57;;
16954;SDS011;8594;52.052;8.354;2022-10-16T06:16:31;8.83;;;5.20;;
16954;SDS011;8594;52.052;8.354;2022-10-16T06:18:59;4.10;;;2.97;;
16954;SDS011;8594;52.052;8.354;2022-10-16T06:21:26;5.33;;;2.90;;
16954;SDS011;8594;52.052;8.354;2022-10-16T06:23:55;5.03;;;2.97;;
16954;SDS011;8594;52.052;8.354;2022-10-16T06:26:24;5.53;;;3.53;;
16954;SDS011;8594;52.052;8.354;2022-10-16T06:28:55;5.10;;;3.40;;
16954;SDS011;8594;52.052;8.354;2022-10-16T06:31:24;3.70;;;3.00;;
16954;SDS011;8594;52.052;8.354;2022-10-16T06:33:54;5.27;;;3.63;;
16954;SDS011;8594;52.052;8.354;2022-10-16T06:36:21;6.87;;;3.20;;
16954;SDS011;8594;52.052;8.354;2022-10-16T06:38:48;5.20;;;3.30;;
16954;SDS011;8594;52.052;8.354;2022-10-16T06:41:16;5.87;;;3.13;;
16954;SDS011;8594;52.052;8.354;2022-10-16T06:43:45;3.93;;;2.57;;
16954;SDS011;8594;52.052;8.354;2022-10-16T06:46:15;6.47;;;2.60;;
16954;SDS011;8594;52.052;8.354;2022-10-16T06:48:44;6.53;;;2.47;;
16954;SDS011;8594;52.052;8.354;2022-10-16T06:51:13;4.63;;;2.20;;
16954;SDS011;8594;52.052;8.354;2022-10-16T06:53:42;3.80;;;2.20;;
16954;SDS011;8594;52.052;8.354;2022-10-16T06:56:13;3.80;;;2.00;;
16954;SDS011;8594;52.052;8.354;2022-10-16T06:58:42;3.07;;;2.00;;
16954;SDS011;8594;52.052;8.354;2022-10-16T07:01:10;4.03;;;2.23;;
16954;SDS011;8594;52.052;8.354;2022-10-16T07:03:41;4.90;;;2.10;;
16954;SDS011;8594;52.052;8.354;2022-10-16T07:06:11;2.93;;;2.30;;
16954;SDS011;8594;52.052;8.354;2022-10-16T07:08:41;4.60;;;2.27;;
16954;SDS011;8594;52.052;8.354;2022-10-16T07:11:11;3.17;;;2.40;;
16954;SDS011;8594;52.052;8.354;2022-10-16T07:13:40;4.47;;;1.83;;
16954;SDS011;8594;52.052;8.354;2022-10-16T07:16:10;3.70;;;1.70;;
16954;SDS011;8594;52.052;8.354;2022-10-16T07:18:40;2.40;;;1.33;;
16954;SDS011;8594;52.052;8.354;2022-10-16T07:21:11;5.80;;;1.70;;
16954;SDS011;8594;52.052;8.354;2022-10-16T07:23:41;4.30;;;1.60;;
16954;SDS011;8594;52.052;8.354;2022-10-16T07:26:09;1.93;;;1.40;;
16954;SDS011;8594;52.052;8.354;2022-10-16T07:28:37;4.50;;;1.40;;
16954;SDS011;8594;52.052;8.354;2022-10-16T07:31:05;4.43;;;1.40;;
16954;SDS011;8594;52.052;8.354;2022-10-16T07:33:38;2.60;;;1.47;;
16954;SDS011;8594;52.052;8.354;2022-10-16T07:36:09;2.23;;;1.37;;
16954;SDS011;8594;52.052;8.354;2022-10-16T07:38:37;1.57;;;1.17;;
16954;SDS011;8594;52.052;8.354;2022-10-16T07:41:05;4.20;;;1.53;;
16954;SDS011;8594;52.052;8.354;2022-10-16T07:43:34;1.90;;;1.20;;
16954;SDS011;8594;52.052;8.354;2022-10-16T07:46:01;3.10;;;1.37;;
16954;SDS011;8594;52.052;8.354;2022-10-16T07:48:29;3.90;;;1.20;;
16954;SDS011;8594;52.052;8.354;2022-10-16T07:51:00;2.57;;;1.20;;
16954;SDS011;8594;52.052;8.354;2022-10-16T07:53:30;3.33;;;1.20;;
16954;SDS011;8594;52.052;8.354;2022-10-16T07:55:57;1.93;;;1.40;;
16954;SDS011;8594;52.052;8.354;2022-10-16T07:58:25;1.93;;;1.43;;
16954;SDS011;8594;52.052;8.354;2022-10-16T08:00:52;2.93;;;1.20;;
16954;SDS011;8594;52.052;8.354;2022-10-16T08:03:19;3.50;;;1.00;;
16954;SDS011;8594;52.052;8.354;2022-10-16T08:05:46;4.13;;;1.33;;
16954;SDS011;8594;52.052;8.354;2022-10-16T08:08:15;3.63;;;1.30;;
16954;SDS011;8594;52.052;8.354;2022-10-16T08:10:43;1.20;;;1.00;;
16954;SDS011;8594;52.052;8.354;2022-10-16T08:13:10;6.70;;;1.70;;
16954;SDS011;8594;52.052;8.354;2022-10-16T08:15:39;5.47;;;1.27;;
16954;SDS011;8594;52.052;8.354;2022-10-16T08:18:06;3.73;;;1.17;;
16954;SDS011;8594;52.052;8.354;2022-10-16T08:20:35;4.07;;;1.20;;
16954;SDS011;8594;52.052;8.354;2022-10-16T08:23:02;3.03;;;1.20;;
16954;SDS011;8594;52.052;8.354;2022-10-16T08:25:30;2.63;;;1.30;;
16954;SDS011;8594;52.052;8.354;2022-10-16T08:27:57;3.17;;;1.40;;
16954;SDS011;8594;52.052;8.354;2022-10-16T08:30:24;1.97;;;1.00;;
16954;SDS011;8594;52.052;8.354;2022-10-16T08:32:51;4.87;;;1.20;;
16954;SDS011;8594;52.052;8.354;2022-10-16T08:35:18;2.47;;;0.90;;
16954;SDS011;8594;52.052;8.354;2022-10-16T08:37:45;3.13;;;1.30;;
16954;SDS011;8594;52.052;8.354;2022-10-16T08:40:16;2.77;;;0.97;;
16954;SDS011;8594;52.052;8.354;2022-10-16T08:42:50;3.37;;;1.40;;
16954;SDS011;8594;52.052;8.354;2022-10-16T08:45:36;4.50;;;1.27;;
16954;SDS011;8594;52.052;8.354;2022-10-16T08:48:16;5.07;;;1.50;;
16954;SDS011;8594;52.052;8.354;2022-10-16T08:50:51;4.77;;;1.30;;
16954;SDS011;8594;52.052;8.354;2022-10-16T08:53:20;4.77;;;1.30;;
16954;SDS011;8594;52.052;8.354;2022-10-16T08:55:53;2.30;;;1.13;;
16954;SDS011;8594;52.052;8.354;2022-10-16T08:58:25;5.80;;;1.20;;
16954;SDS011;8594;52.052;8.354;2022-10-16T09:00:55;1.80;;;1.20;;
16954;SDS011;8594;52.052;8.354;2022-10-16T09:03:29;2.93;;;1.13;;
16954;SDS011;8594;52.052;8.354;2022-10-16T09:06:22;2.00;;;0.97;;
16954;SDS011;8594;52.052;8.354;2022-10-16T09:09:05;3.70;;;1.30;;
16954;SDS011;8594;52.052;8.354;2022-10-16T09:11:52;2.23;;;1.20;;
16954;SDS011;8594;52.052;8.354;2022-10-16T09:14:35;3.87;;;1.20;;
16954;SDS011;8594;52.052;8.354;2022-10-16T09:17:29;4.20;;;1.50;;
16954;SDS011;8594;52.052;8.354;2022-10-16T09:20:16;3.40;;;1.23;;
16954;SDS011;8594;52.052;8.354;2022-10-16T09:22:55;2.60;;;1.40;;
16954;SDS011;8594;52.052;8.354;2022-10-16T09:25:38;6.50;;;1.50;;
16954;SDS011;8594;52.052;8.354;2022-10-16T09:28:09;2.83;;;1.20;;
16954;SDS011;8594;52.052;8.354;2022-10-16T09:30:37;2.07;;;1.30;;
16954;SDS011;8594;52.052;8.354;2022-10-16T09:33:05;3.40;;;1.57;;
16954;SDS011;8594;52.052;8.354;2022-10-16T09:35:36;5.07;;;1.20;;
16954;SDS011;8594;52.052;8.354;2022-10-16T09:38:06;4.73;;;1.40;;
16954;SDS011;8594;52.052;8.354;2022-10-16T09:40:35;3.63;;;1.33;;
16954;SDS011;8594;52.052;8.354;2022-10-16T09:43:13;2.57;;;1.10;;
16954;SDS011;8594;52.052;8.354;2022-10-16T09:45:55;4.20;;;1.57;;
16954;SDS011;8594;52.052;8.354;2022-10-16T09:48:25;2.23;;;1.20;;
16954;SDS011;8594;52.052;8.354;2022-10-16T09:50:57;5.33;;;1.30;;
16954;SDS011;8594;52.052;8.354;2022-10-16T09:53:37;5.77;;;1.50;;
16954;SDS011;8594;52.052;8.354;2022-10-16T09:56:09;6.50;;;1.57;;
16954;SDS011;8594;52.052;8.354;2022-10-16T09:58:41;2.73;;;1.10;;
16954;SDS011;8594;52.052;8.354;2022-10-16T10:01:13;5.20;;;1.33;;
16954;SDS011;8594;52.052;8.354;2022-10-16T10:03:41;4.63;;;1.27;;
16954;SDS011;8594;52.052;8.354;2022-10-16T10:06:17;4.00;;;1.33;;
16954;SDS011;8594;52.052;8.354;2022-10-16T10:08:53;3.33;;;1.50;;
16954;SDS011;8594;52.052;8.354;2022-10-16T10:11:40;5.00;;;1.10;;
16954;SDS011;8594;52.052;8.354;2022-10-16T10:14:31;1.83;;;0.77;;
16954;SDS011;8594;52.052;8.354;2022-10-16T10:17:09;3.43;;;1.60;;
16954;SDS011;8594;52.052;8.354;2022-10-16T10:19:41;4.90;;;1.37;;
16954;SDS011;8594;52.052;8.354;2022-10-16T10:22:16;4.87;;;1.13;;
16954;SDS011;8594;52.052;8.354;2022-10-16T10:25:12;1.93;;;0.90;;
16954;SDS011;8594;52.052;8.354;2022-10-16T10:28:01;3.67;;;1.20;;
16954;SDS011;8594;52.052;8.354;2022-10-16T10:30:56;2.77;;;1.20;;
16954;SDS011;8594;52.052;8.354;2022-10-16T10:33:33;5.53;;;1.20;;
16954;SDS011;8594;52.052;8.354;2022-10-16T10:36:12;7.27;;;1.27;;
16954;SDS011;8594;52.052;8.354;2022-10-16T10:38:52;3.37;;;0.87;;
16954;SDS011;8594;52.052;8.354;2022-10-16T10:41:38;4.87;;;1.23;;
16954;SDS011;8594;52.052;8.354;2022-10-16T10:44:43;6.00;;;1.50;;
16954;SDS011;8594;52.052;8.354;2022-10-16T10:47:39;3.00;;;1.07;;
16954;SDS011;8594;52.052;8.354;2022-10-16T10:50:22;4.80;;;1.40;;
16954;SDS011;8594;52.052;8.354;2022-10-16T10:52:59;3.43;;;1.20;;
16954;SDS011;8594;52.052;8.354;2022-10-16T10:55:39;3.00;;;1.20;;
16954;SDS011;8594;52.052;8.354;2022-10-16T10:58:16;3.00;;;1.30;;
16954;SDS011;8594;52.052;8.354;2022-10-16T11:01:23;4.53;;;1.30;;
16954;SDS011;8594;52.052;8.354;2022-10-16T11:04:10;3.93;;;1.13;;
16954;SDS011;8594;52.052;8.354;2022-10-16T11:07:19;5.70;;;1.37;;
16954;SDS011;8594;52.052;8.354;2022-10-16T11:09:53;5.13;;;1.30;;
16954;SDS011;8594;52.052;8.354;2022-10-16T11:12:29;4.60;;;1.20;;
16954;SDS011;8594;52.052;8.354;2022-10-16T11:15:03;2.77;;;1.27;;
16954;SDS011;8594;52.052;8.354;2022-10-16T11:17:41;6.57;;;1.60;;
16954;SDS011;8594;52.052;8.354;2022-10-16T11:20:14;5.90;;;1.93;;
16954;SDS011;8594;52.052;8.354;2022-10-16T11:22:50;11.57;;;1.90;;
16954;SDS011;8594;52.052;8.354;2022-10-16T11:25:23;4.80;;;1.40;;
16954;SDS011;8594;52.052;8.354;2022-10-16T11:27:55;6.07;;;1.93;;
16954;SDS011;8594;52.052;8.354;2022-10-16T11:30:30;6.30;;;1.53;;
16954;SDS011;8594;52.052;8.354;2022-10-16T11:33:10;4.50;;;1.50;;
16954;SDS011;8594;52.052;8.354;2022-10-16T11:35:57;4.30;;;1.93;;
16954;SDS011;8594;52.052;8.354;2022-10-16T11:38:37;4.27;;;1.70;;
16954;SDS011;8594;52.052;8.354;2022-10-16T11:41:17;6.13;;;1.90;;
16954;SDS011;8594;52.052;8.354;2022-10-16T11:43:54;6.90;;;1.80;;
16954;SDS011;8594;52.052;8.354;2022-10-16T11:46:38;2.63;;;1.37;;
16954;SDS011;8594;52.052;8.354;2022-10-16T11:49:12;3.63;;;1.30;;
16954;SDS011;8594;52.052;8.354;2022-10-16T11:51:45;4.20;;;1.10;;
16954;SDS011;8594;52.052;8.354;2022-10-16T11:54:28;5.93;;;1.60;;
16954;SDS011;8594;52.052;8.354;2022-10-16T11:57:07;5.63;;;1.20;;
16954;SDS011;8594;52.052;8.354;2022-10-16T11:59:42;4.43;;;1.10;;
16954;SDS011;8594;52.052;8.354;2022-10-16T12:02:27;2.90;;;1.13;;
16954;SDS011;8594;52.052;8.354;2022-10-16T12:05:18;4.40;;;1.47;;
16954;SDS011;8594;52.052;8.354;2022-10-16T12:08:01;4.43;;;1.20;;
16954;SDS011;8594;52.052;8.354;2022-10-16T12:10:38;2.20;;;1.20;;
16954;SDS011;8594;52.052;8.354;2022-10-16T12:16:05;3.93;;;1.10;;
16954;SDS011;8594;52.052;8.354;2022-10-16T12:18:47;1.23;;;1.10;;
16954;SDS011;8594;52.052;8.354;2022-10-16T12:21:15;2.50;;;1.20;;
16954;SDS011;8594;52.052;8.354;2022-10-16T12:23:47;1.93;;;1.00;;
16954;SDS011;8594;52.052;8.354;2022-10-16T12:26:25;4.43;;;1.23;;
16954;SDS011;8594;52.052;8.354;2022-10-16T12:28:54;4.17;;;1.33;;
16954;SDS011;8594;52.052;8.354;2022-10-16T12:31:43;3.27;;;1.30;;
16954;SDS011;8594;52.052;8.354;2022-10-16T12:34:14;6.43;;;1.43;;
16954;SDS011;8594;52.052;8.354;2022-10-16T12:36:51;3.10;;;1.30;;
16954;SDS011;8594;52.052;8.354;2022-10-16T12:39:21;5.93;;;1.40;;
16954;SDS011;8594;52.052;8.354;2022-10-16T12:42:01;4.97;;;1.30;;
16954;SDS011;8594;52.052;8.354;2022-10-16T12:44:31;2.97;;;1.10;;
16954;SDS011;8594;52.052;8.354;2022-10-16T12:47:01;3.00;;;1.20;;
16954;SDS011;8594;52.052;8.354;2022-10-16T12:49:30;6.27;;;1.30;;
16954;SDS011;8594;52.052;8.354;2022-10-16T12:52:03;3.93;;;1.30;;
16954;SDS011;8594;52.052;8.354;2022-10-16T12:54:31;3.53;;;1.00;;
16954;SDS011;8594;52.052;8.354;2022-10-16T12:59:59;3.07;;;1.00;;
16954;SDS011;8594;52.052;8.354;2022-10-16T13:05:51;4.43;;;1.10;;
16954;SDS011;8594;52.052;8.354;2022-10-16T13:08:42;4.23;;;1.33;;
16954;SDS011;8594;52.052;8.354;2022-10-16T13:11:38;2.63;;;1.10;;
16954;SDS011;8594;52.052;8.354;2022-10-16T13:14:25;2.10;;;1.10;;
16954;SDS011;8594;52.052;8.354;2022-10-16T13:17:17;3.13;;;1.17;;
16954;SDS011;8594;52.052;8.354;2022-10-16T13:19:54;3.00;;;1.10;;
16954;SDS011;8594;52.052;8.354;2022-10-16T13:22:33;2.97;;;1.30;;
16954;SDS011;8594;52.052;8.354;2022-10-16T13:25:18;4.03;;;1.40;;
16954;SDS011;8594;52.052;8.354;2022-10-16T13:27:59;3.80;;;1.47;;
16954;SDS011;8594;52.052;8.354;2022-10-16T13:30:29;2.73;;;1.27;;
16954;SDS011;8594;52.052;8.354;2022-10-16T13:33:02;4.17;;;1.40;;
16954;SDS011;8594;52.052;8.354;2022-10-16T13:35:33;5.30;;;1.50;;
16954;SDS011;8594;52.052;8.354;2022-10-16T13:38:05;2.50;;;1.20;;
16954;SDS011;8594;52.052;8.354;2022-10-16T13:40:47;4.10;;;1.40;;
16954;SDS011;8594;52.052;8.354;2022-10-16T13:43:21;2.33;;;1.30;;
16954;SDS011;8594;52.052;8.354;2022-10-16T13:45:55;5.87;;;1.37;;
16954;SDS011;8594;52.052;8.354;2022-10-16T13:48:25;4.07;;;1.30;;
16954;SDS011;8594;52.052;8.354;2022-10-16T13:50:59;2.73;;;1.50;;
16954;SDS011;8594;52.052;8.354;2022-10-16T13:53:29;3.00;;;1.40;;
16954;SDS011;8594;52.052;8.354;2022-10-16T13:55:58;3.33;;;1.70;;
16954;SDS011;8594;52.052;8.354;2022-10-16T13:58:26;2.87;;;1.33;;
16954;SDS011;8594;52.052;8.354;2022-10-16T14:00:56;5.20;;;1.70;;
16954;SDS011;8594;52.052;8.354;2022-10-16T14:03:26;6.40;;;1.90;;
16954;SDS011;8594;52.052;8.354;2022-10-16T14:05:55;3.47;;;1.60;;
16954;SDS011;8594;52.052;8.354;2022-10-16T14:08:27;2.80;;;1.70;;
16954;SDS011;8594;52.052;8.354;2022-10-16T14:10:56;2.50;;;1.50;;
16954;SDS011;8594;52.052;8.354;2022-10-16T14:13:28;5.93;;;1.60;;
16954;SDS011;8594;52.052;8.354;2022-10-16T14:16:07;3.37;;;1.77;;
16954;SDS011;8594;52.052;8.354;2022-10-16T14:18:37;3.57;;;1.63;;
16954;SDS011;8594;52.052;8.354;2022-10-16T14:21:06;2.57;;;1.40;;
16954;SDS011;8594;52.052;8.354;2022-10-16T14:23:40;4.30;;;1.73;;
16954;SDS011;8594;52.052;8.354;2022-10-16T14:26:12;3.23;;;1.73;;
16954;SDS011;8594;52.052;8.354;2022-10-16T14:28:46;3.03;;;1.53;;
16954;SDS011;8594;52.052;8.354;2022-10-16T14:31:27;3.50;;;1.80;;
16954;SDS011;8594;52.052;8.354;2022-10-16T14:33:57;4.00;;;1.83;;
16954;SDS011;8594;52.052;8.354;2022-10-16T14:36:26;3.57;;;1.60;;
16954;SDS011;8594;52.052;8.354;2022-10-16T14:38:56;2.80;;;1.67;;
16954;SDS011;8594;52.052;8.354;2022-10-16T14:41:27;4.27;;;1.63;;
16954;SDS011;8594;52.052;8.354;2022-10-16T14:43:57;5.60;;;1.60;;
16954;SDS011;8594;52.052;8.354;2022-10-16T14:46:31;7.40;;;1.60;;
16954;SDS011;8594;52.052;8.354;2022-10-16T14:49:04;4.03;;;1.70;;
16954;SDS011;8594;52.052;8.354;2022-10-16T14:51:43;5.10;;;2.13;;
16954;SDS011;8594;52.052;8.354;2022-10-16T14:54:11;2.57;;;1.60;;
16954;SDS011;8594;52.052;8.354;2022-10-16T14:56:42;6.07;;;1.60;;
16954;SDS011;8594;52.052;8.354;2022-10-16T14:59:14;5.90;;;1.73;;
16954;SDS011;8594;52.052;8.354;2022-10-16T15:01:49;4.13;;;1.57;;
16954;SDS011;8594;52.052;8.354;2022-10-16T15:04:16;2.60;;;1.30;;
16954;SDS011;8594;52.052;8.354;2022-10-16T15:06:43;3.97;;;1.50;;
16954;SDS011;8594;52.052;8.354;2022-10-16T15:09:10;3.90;;;1.70;;
16954;SDS011;8594;52.052;8.354;2022-10-16T15:11:37;4.77;;;1.77;;
16954;SDS011;8594;52.052;8.354;2022-10-16T15:14:05;2.43;;;1.30;;
16954;SDS011;8594;52.052;8.354;2022-10-16T15:16:32;5.57;;;1.70;;
16954;SDS011;8594;52.052;8.354;2022-10-16T15:19:00;2.13;;;1.47;;
16954;SDS011;8594;52.052;8.354;2022-10-16T15:21:28;4.77;;;1.73;;
16954;SDS011;8594;52.052;8.354;2022-10-16T15:23:58;5.33;;;1.90;;
16954;SDS011;8594;52.052;8.354;2022-10-16T15:26:27;4.00;;;1.40;;
16954;SDS011;8594;52.052;8.354;2022-10-16T15:28:55;2.80;;;1.50;;
16954;SDS011;8594;52.052;8.354;2022-10-16T15:31:23;5.30;;;1.50;;
16954;SDS011;8594;52.052;8.354;2022-10-16T15:33:50;4.13;;;1.60;;
16954;SDS011;8594;52.052;8.354;2022-10-16T15:36:25;4.03;;;1.60;;
16954;SDS011;8594;52.052;8.354;2022-10-16T15:38:54;8.30;;;2.03;;